sensor_id;sensor_type;location;lat;lon;timestamp;P1;durP1;ratioP1;P2;durP2;ratioP2
7471;SDS011;3777;48.722;8.110;2023-03-03T00:01:12;47.07;;;32.20;;
7471;SDS011;3777;48.722;8.110;2023-03-03T00:03:39;55.10;;;33.63;;
7471;SDS011;3777;48.722;8.110;2023-03-03T00:06:08;51.87;;;33.67;;
7471;SDS011;3777;48.722;8.110;2023-03-03T00:08:37;51.33;;;31.77;;
7471;SDS011;3777;48.722;8.110;2023-03-03T00:11:05;49.60;;;31.40;;
7471;SDS011;3777;48.722;8.110;2023-03-03T00:13:43;47.80;;;31.63;;
7471;SDS011;3777;48.722;8.110;2023-03-03T00:16:22;45.43;;;29.80;;
7471;SDS011;3777;48.722;8.110;2023-03-03T00:18:51;48.90;;;32.17;;
7471;SDS011;3777;48.722;8.110;2023-03-03T00:21:23;50.53;;;30.83;;
7471;SDS011;3777;48.722;8.110;2023-03-03T00:23:54;47.30;;;30.63;;
7471;SDS011;3777;48.722;8.110;2023-03-03T00:26:36;49.77;;;32.23;;
7471;SDS011;3777;48.722;8.110;2023-03-03T00:29:19;55.13;;;34.67;;
7471;SDS011;3777;48.722;8.110;2023-03-03T00:31:59;50.87;;;31.80;;
7471;SDS011;3777;48.722;8.110;2023-03-03T00:34:43;51.23;;;31.80;;
7471;SDS011;3777;48.722;8.110;2023-03-03T00:37:18;53.97;;;33.23;;
7471;SDS011;3777;48.722;8.110;2023-03-03T00:39:58;52.67;;;32.93;;
7471;SDS011;3777;48.722;8.110;2023-03-03T00:42:39;46.80;;;31.90;;
7471;SDS011;3777;48.722;8.110;2023-03-03T00:45:15;47.83;;;31.30;;
7471;SDS011;3777;48.722;8.110;2023-03-03T00:47:49;51.63;;;32.97;;
7471;SDS011;3777;48.722;8.110;2023-03-03T00:50:20;48.13;;;31.83;;
7471;SDS011;3777;48.722;8.110;2023-03-03T00:52:59;47.07;;;30.87;;
7471;SDS011;3777;48.722;8.110;2023-03-03T00:55:38;49.07;;;31.33;;
7471;SDS011;3777;48.722;8.110;2023-03-03T00:58:05;43.00;;;29.07;;
7471;SDS011;3777;48.722;8.110;2023-03-03T01:00:32;46.00;;;29.03;;
7471;SDS011;3777;48.722;8.110;2023-03-03T01:03:01;44.93;;;29.37;;
7471;SDS011;3777;48.722;8.110;2023-03-03T01:05:29;43.40;;;28.30;;
7471;SDS011;3777;48.722;8.110;2023-03-03T01:07:56;42.23;;;28.53;;
7471;SDS011;3777;48.722;8.110;2023-03-03T01:10:23;39.40;;;27.10;;
7471;SDS011;3777;48.722;8.110;2023-03-03T01:12:52;41.40;;;27.93;;
7471;SDS011;3777;48.722;8.110;2023-03-03T01:15:21;44.63;;;28.43;;
7471;SDS011;3777;48.722;8.110;2023-03-03T01:17:49;46.83;;;30.37;;
7471;SDS011;3777;48.722;8.110;2023-03-03T01:20:16;43.47;;;28.40;;
7471;SDS011;3777;48.722;8.110;2023-03-03T01:22:44;45.77;;;29.70;;
7471;SDS011;3777;48.722;8.110;2023-03-03T01:25:10;44.27;;;29.57;;
7471;SDS011;3777;48.722;8.110;2023-03-03T01:27:37;46.17;;;29.80;;
7471;SDS011;3777;48.722;8.110;2023-03-03T01:30:07;43.07;;;28.50;;
7471;SDS011;3777;48.722;8.110;2023-03-03T01:32:34;41.10;;;28.47;;
7471;SDS011;3777;48.722;8.110;2023-03-03T01:35:04;43.10;;;28.10;;
7471;SDS011;3777;48.722;8.110;2023-03-03T01:37:33;42.77;;;28.27;;
7471;SDS011;3777;48.722;8.110;2023-03-03T01:40:00;43.17;;;28.73;;
7471;SDS011;3777;48.722;8.110;2023-03-03T01:42:27;42.73;;;27.77;;
7471;SDS011;3777;48.722;8.110;2023-03-03T01:45:15;42.90;;;29.23;;
7471;SDS011;3777;48.722;8.110;2023-03-03T01:47:49;47.23;;;28.87;;
7471;SDS011;3777;48.722;8.110;2023-03-03T01:50:26;43.03;;;28.57;;
7471;SDS011;3777;48.722;8.110;2023-03-03T01:52:58;42.93;;;28.17;;
7471;SDS011;3777;48.722;8.110;2023-03-03T01:55:28;46.00;;;29.37;;
7471;SDS011;3777;48.722;8.110;2023-03-03T01:57:57;41.50;;;29.53;;
7471;SDS011;3777;48.722;8.110;2023-03-03T02:00:30;44.20;;;29.43;;
7471;SDS011;3777;48.722;8.110;2023-03-03T02:02:59;44.33;;;28.27;;
7471;SDS011;3777;48.722;8.110;2023-03-03T02:05:26;47.13;;;27.60;;
7471;SDS011;3777;48.722;8.110;2023-03-03T02:07:54;45.53;;;29.80;;
7471;SDS011;3777;48.722;8.110;2023-03-03T02:10:21;42.93;;;27.27;;
7471;SDS011;3777;48.722;8.110;2023-03-03T02:12:49;40.53;;;27.80;;
7471;SDS011;3777;48.722;8.110;2023-03-03T02:15:18;45.03;;;28.50;;
7471;SDS011;3777;48.722;8.110;2023-03-03T02:17:49;43.37;;;28.87;;
7471;SDS011;3777;48.722;8.110;2023-03-03T02:20:21;43.70;;;28.33;;
7471;SDS011;3777;48.722;8.110;2023-03-03T02:22:59;43.03;;;28.10;;
7471;SDS011;3777;48.722;8.110;2023-03-03T02:25:33;44.93;;;29.23;;
7471;SDS011;3777;48.722;8.110;2023-03-03T02:28:09;42.07;;;29.00;;
7471;SDS011;3777;48.722;8.110;2023-03-03T02:30:36;49.10;;;30.93;;
7471;SDS011;3777;48.722;8.110;2023-03-03T02:33:05;46.27;;;29.83;;
7471;SDS011;3777;48.722;8.110;2023-03-03T02:35:33;46.37;;;29.80;;
7471;SDS011;3777;48.722;8.110;2023-03-03T02:38:05;48.47;;;30.30;;
7471;SDS011;3777;48.722;8.110;2023-03-03T02:40:44;49.80;;;32.03;;
7471;SDS011;3777;48.722;8.110;2023-03-03T02:43:23;48.57;;;31.37;;
7471;SDS011;3777;48.722;8.110;2023-03-03T02:45:55;51.83;;;30.57;;
7471;SDS011;3777;48.722;8.110;2023-03-03T02:48:22;50.80;;;32.33;;
7471;SDS011;3777;48.722;8.110;2023-03-03T02:50:49;50.10;;;31.20;;
7471;SDS011;3777;48.722;8.110;2023-03-03T02:53:16;51.37;;;31.80;;
7471;SDS011;3777;48.722;8.110;2023-03-03T02:55:43;45.07;;;30.47;;
7471;SDS011;3777;48.722;8.110;2023-03-03T02:58:09;47.67;;;30.27;;
7471;SDS011;3777;48.722;8.110;2023-03-03T03:00:38;49.10;;;29.97;;
7471;SDS011;3777;48.722;8.110;2023-03-03T03:03:05;47.53;;;30.80;;
7471;SDS011;3777;48.722;8.110;2023-03-03T03:05:32;50.97;;;33.03;;
7471;SDS011;3777;48.722;8.110;2023-03-03T03:07:58;50.93;;;30.93;;
7471;SDS011;3777;48.722;8.110;2023-03-03T03:10:25;51.93;;;31.77;;
7471;SDS011;3777;48.722;8.110;2023-03-03T03:12:52;52.57;;;32.13;;
7471;SDS011;3777;48.722;8.110;2023-03-03T03:15:19;57.07;;;33.53;;
7471;SDS011;3777;48.722;8.110;2023-03-03T03:17:48;53.77;;;32.80;;
7471;SDS011;3777;48.722;8.110;2023-03-03T03:20:15;50.03;;;33.57;;
7471;SDS011;3777;48.722;8.110;2023-03-03T03:22:42;55.53;;;33.30;;
7471;SDS011;3777;48.722;8.110;2023-03-03T03:25:09;50.50;;;31.67;;
7471;SDS011;3777;48.722;8.110;2023-03-03T03:27:36;50.40;;;31.30;;
7471;SDS011;3777;48.722;8.110;2023-03-03T03:30:04;55.87;;;34.07;;
7471;SDS011;3777;48.722;8.110;2023-03-03T03:32:31;50.57;;;32.23;;
7471;SDS011;3777;48.722;8.110;2023-03-03T03:34:59;56.53;;;33.77;;
7471;SDS011;3777;48.722;8.110;2023-03-03T03:37:26;50.77;;;31.97;;
7471;SDS011;3777;48.722;8.110;2023-03-03T03:39:53;49.83;;;32.43;;
7471;SDS011;3777;48.722;8.110;2023-03-03T03:42:20;56.00;;;33.60;;
7471;SDS011;3777;48.722;8.110;2023-03-03T03:44:47;50.03;;;31.90;;
7471;SDS011;3777;48.722;8.110;2023-03-03T03:47:15;48.30;;;31.37;;
7471;SDS011;3777;48.722;8.110;2023-03-03T03:49:42;56.17;;;34.80;;
7471;SDS011;3777;48.722;8.110;2023-03-03T03:52:10;50.40;;;33.37;;
7471;SDS011;3777;48.722;8.110;2023-03-03T03:54:37;54.47;;;32.93;;
7471;SDS011;3777;48.722;8.110;2023-03-03T03:57:04;48.30;;;32.93;;
7471;SDS011;3777;48.722;8.110;2023-03-03T03:59:31;48.63;;;31.67;;
7471;SDS011;3777;48.722;8.110;2023-03-03T04:01:58;49.40;;;33.43;;
7471;SDS011;3777;48.722;8.110;2023-03-03T04:04:25;54.30;;;32.97;;
7471;SDS011;3777;48.722;8.110;2023-03-03T04:06:51;49.73;;;32.17;;
7471;SDS011;3777;48.722;8.110;2023-03-03T04:09:20;52.03;;;32.90;;
7471;SDS011;3777;48.722;8.110;2023-03-03T04:11:47;48.47;;;30.43;;
7471;SDS011;3777;48.722;8.110;2023-03-03T04:14:14;47.07;;;30.70;;
7471;SDS011;3777;48.722;8.110;2023-03-03T04:16:41;48.60;;;30.53;;
7471;SDS011;3777;48.722;8.110;2023-03-03T04:19:08;49.70;;;31.30;;
7471;SDS011;3777;48.722;8.110;2023-03-03T04:21:35;47.17;;;30.13;;
7471;SDS011;3777;48.722;8.110;2023-03-03T04:24:02;46.87;;;30.73;;
7471;SDS011;3777;48.722;8.110;2023-03-03T04:26:31;48.10;;;31.27;;
7471;SDS011;3777;48.722;8.110;2023-03-03T04:28:57;49.73;;;30.20;;
7471;SDS011;3777;48.722;8.110;2023-03-03T04:31:25;49.87;;;31.63;;
7471;SDS011;3777;48.722;8.110;2023-03-03T04:33:53;49.03;;;31.97;;
7471;SDS011;3777;48.722;8.110;2023-03-03T04:36:20;50.47;;;32.27;;
7471;SDS011;3777;48.722;8.110;2023-03-03T04:38:47;51.23;;;31.10;;
7471;SDS011;3777;48.722;8.110;2023-03-03T04:41:14;50.00;;;30.60;;
7471;SDS011;3777;48.722;8.110;2023-03-03T04:43:42;50.70;;;31.80;;
7471;SDS011;3777;48.722;8.110;2023-03-03T04:46:09;47.43;;;30.80;;
7471;SDS011;3777;48.722;8.110;2023-03-03T04:48:36;46.77;;;30.10;;
7471;SDS011;3777;48.722;8.110;2023-03-03T04:51:03;50.20;;;30.03;;
7471;SDS011;3777;48.722;8.110;2023-03-03T04:53:30;47.43;;;29.50;;
7471;SDS011;3777;48.722;8.110;2023-03-03T04:55:57;47.60;;;29.13;;
7471;SDS011;3777;48.722;8.110;2023-03-03T04:58:25;46.77;;;30.63;;
7471;SDS011;3777;48.722;8.110;2023-03-03T05:00:54;47.03;;;30.07;;
7471;SDS011;3777;48.722;8.110;2023-03-03T05:03:22;46.67;;;30.20;;
7471;SDS011;3777;48.722;8.110;2023-03-03T05:05:51;50.70;;;29.10;;
7471;SDS011;3777;48.722;8.110;2023-03-03T05:08:18;48.37;;;30.03;;
7471;SDS011;3777;48.722;8.110;2023-03-03T05:10:45;46.17;;;29.03;;
7471;SDS011;3777;48.722;8.110;2023-03-03T05:13:12;43.97;;;29.33;;
7471;SDS011;3777;48.722;8.110;2023-03-03T05:15:41;51.10;;;29.83;;
7471;SDS011;3777;48.722;8.110;2023-03-03T05:18:09;49.03;;;30.43;;
7471;SDS011;3777;48.722;8.110;2023-03-03T05:20:38;45.33;;;29.60;;
7471;SDS011;3777;48.722;8.110;2023-03-03T05:23:06;45.20;;;29.77;;
7471;SDS011;3777;48.722;8.110;2023-03-03T05:25:32;44.77;;;28.40;;
7471;SDS011;3777;48.722;8.110;2023-03-03T05:27:59;43.70;;;27.90;;
7471;SDS011;3777;48.722;8.110;2023-03-03T05:30:28;43.83;;;28.60;;
7471;SDS011;3777;48.722;8.110;2023-03-03T05:32:56;49.00;;;31.13;;
7471;SDS011;3777;48.722;8.110;2023-03-03T05:35:25;48.70;;;30.83;;
7471;SDS011;3777;48.722;8.110;2023-03-03T05:37:52;48.97;;;31.20;;
7471;SDS011;3777;48.722;8.110;2023-03-03T05:40:19;49.73;;;32.93;;
7471;SDS011;3777;48.722;8.110;2023-03-03T05:42:46;52.20;;;32.37;;
7471;SDS011;3777;48.722;8.110;2023-03-03T05:45:13;53.70;;;32.57;;
7471;SDS011;3777;48.722;8.110;2023-03-03T05:47:40;46.40;;;29.50;;
7471;SDS011;3777;48.722;8.110;2023-03-03T05:50:08;44.63;;;30.73;;
7471;SDS011;3777;48.722;8.110;2023-03-03T05:52:37;45.33;;;29.50;;
7471;SDS011;3777;48.722;8.110;2023-03-03T05:55:04;45.77;;;29.50;;
7471;SDS011;3777;48.722;8.110;2023-03-03T05:57:32;43.67;;;29.63;;
7471;SDS011;3777;48.722;8.110;2023-03-03T06:00:00;41.80;;;28.73;;
7471;SDS011;3777;48.722;8.110;2023-03-03T06:02:27;45.67;;;29.37;;
7471;SDS011;3777;48.722;8.110;2023-03-03T06:04:54;43.67;;;28.67;;
7471;SDS011;3777;48.722;8.110;2023-03-03T06:07:21;43.30;;;29.17;;
7471;SDS011;3777;48.722;8.110;2023-03-03T06:09:49;45.80;;;29.33;;
7471;SDS011;3777;48.722;8.110;2023-03-03T06:12:16;43.57;;;28.93;;
7471;SDS011;3777;48.722;8.110;2023-03-03T06:14:43;45.80;;;28.10;;
7471;SDS011;3777;48.722;8.110;2023-03-03T06:17:10;42.17;;;27.47;;
7471;SDS011;3777;48.722;8.110;2023-03-03T06:19:37;42.77;;;28.57;;
7471;SDS011;3777;48.722;8.110;2023-03-03T06:22:05;47.50;;;29.60;;
7471;SDS011;3777;48.722;8.110;2023-03-03T06:24:32;43.20;;;27.53;;
7471;SDS011;3777;48.722;8.110;2023-03-03T06:27:01;40.80;;;28.33;;
7471;SDS011;3777;48.722;8.110;2023-03-03T06:29:28;40.73;;;26.77;;
7471;SDS011;3777;48.722;8.110;2023-03-03T06:31:55;38.83;;;26.37;;
7471;SDS011;3777;48.722;8.110;2023-03-03T06:34:22;41.23;;;27.83;;
7471;SDS011;3777;48.722;8.110;2023-03-03T06:36:49;44.20;;;28.57;;
7471;SDS011;3777;48.722;8.110;2023-03-03T06:39:16;46.20;;;29.53;;
7471;SDS011;3777;48.722;8.110;2023-03-03T06:41:43;42.87;;;28.67;;
7471;SDS011;3777;48.722;8.110;2023-03-03T06:44:11;44.60;;;29.67;;
7471;SDS011;3777;48.722;8.110;2023-03-03T06:46:38;51.53;;;31.20;;
7471;SDS011;3777;48.722;8.110;2023-03-03T06:49:05;49.30;;;31.57;;
7471;SDS011;3777;48.722;8.110;2023-03-03T06:51:33;47.30;;;30.70;;
7471;SDS011;3777;48.722;8.110;2023-03-03T06:54:05;48.30;;;29.57;;
7471;SDS011;3777;48.722;8.110;2023-03-03T06:56:37;50.20;;;31.17;;
7471;SDS011;3777;48.722;8.110;2023-03-03T06:59:05;49.87;;;31.73;;
7471;SDS011;3777;48.722;8.110;2023-03-03T07:01:39;49.30;;;31.60;;
7471;SDS011;3777;48.722;8.110;2023-03-03T07:04:09;47.30;;;30.30;;
7471;SDS011;3777;48.722;8.110;2023-03-03T07:06:41;46.17;;;30.03;;
7471;SDS011;3777;48.722;8.110;2023-03-03T07:09:09;47.27;;;31.07;;
7471;SDS011;3777;48.722;8.110;2023-03-03T07:11:43;46.57;;;30.70;;
7471;SDS011;3777;48.722;8.110;2023-03-03T07:14:13;52.17;;;30.57;;
7471;SDS011;3777;48.722;8.110;2023-03-03T07:16:42;46.07;;;29.43;;
7471;SDS011;3777;48.722;8.110;2023-03-03T07:19:12;47.90;;;29.77;;
7471;SDS011;3777;48.722;8.110;2023-03-03T07:21:44;49.07;;;30.63;;
7471;SDS011;3777;48.722;8.110;2023-03-03T07:24:15;55.00;;;37.57;;
7471;SDS011;3777;48.722;8.110;2023-03-03T07:26:50;53.47;;;33.03;;
7471;SDS011;3777;48.722;8.110;2023-03-03T07:29:20;43.60;;;29.50;;
7471;SDS011;3777;48.722;8.110;2023-03-03T07:31:50;45.37;;;29.50;;
7471;SDS011;3777;48.722;8.110;2023-03-03T07:34:18;47.30;;;30.23;;
7471;SDS011;3777;48.722;8.110;2023-03-03T07:36:48;41.80;;;27.93;;
7471;SDS011;3777;48.722;8.110;2023-03-03T07:39:27;46.80;;;29.67;;
7471;SDS011;3777;48.722;8.110;2023-03-03T07:42:12;43.20;;;29.57;;
7471;SDS011;3777;48.722;8.110;2023-03-03T07:44:46;46.13;;;30.93;;
7471;SDS011;3777;48.722;8.110;2023-03-03T07:47:18;43.27;;;29.73;;
7471;SDS011;3777;48.722;8.110;2023-03-03T07:49:47;50.37;;;30.40;;
7471;SDS011;3777;48.722;8.110;2023-03-03T07:52:25;44.30;;;30.57;;
7471;SDS011;3777;48.722;8.110;2023-03-03T07:54:55;43.70;;;30.33;;
7471;SDS011;3777;48.722;8.110;2023-03-03T07:57:24;43.50;;;31.30;;
7471;SDS011;3777;48.722;8.110;2023-03-03T07:59:54;43.97;;;29.87;;
7471;SDS011;3777;48.722;8.110;2023-03-03T08:02:33;47.97;;;29.97;;
7471;SDS011;3777;48.722;8.110;2023-03-03T08:08:02;46.00;;;30.50;;
7471;SDS011;3777;48.722;8.110;2023-03-03T08:10:46;48.10;;;31.03;;
7471;SDS011;3777;48.722;8.110;2023-03-03T08:13:15;45.53;;;29.30;;
7471;SDS011;3777;48.722;8.110;2023-03-03T08:15:45;45.23;;;29.77;;
7471;SDS011;3777;48.722;8.110;2023-03-03T08:18:18;46.90;;;29.70;;
7471;SDS011;3777;48.722;8.110;2023-03-03T08:20:53;45.53;;;28.97;;
7471;SDS011;3777;48.722;8.110;2023-03-03T08:23:21;44.63;;;29.20;;
7471;SDS011;3777;48.722;8.110;2023-03-03T08:25:49;42.67;;;28.27;;
7471;SDS011;3777;48.722;8.110;2023-03-03T08:28:18;40.57;;;25.60;;
7471;SDS011;3777;48.722;8.110;2023-03-03T08:30:47;40.47;;;26.77;;
7471;SDS011;3777;48.722;8.110;2023-03-03T08:33:14;39.07;;;26.17;;
7471;SDS011;3777;48.722;8.110;2023-03-03T08:35:42;42.63;;;26.80;;
7471;SDS011;3777;48.722;8.110;2023-03-03T08:38:10;37.90;;;26.53;;
7471;SDS011;3777;48.722;8.110;2023-03-03T08:40:38;40.60;;;26.50;;
7471;SDS011;3777;48.722;8.110;2023-03-03T08:43:05;40.57;;;27.13;;
7471;SDS011;3777;48.722;8.110;2023-03-03T08:45:32;38.97;;;25.57;;
7471;SDS011;3777;48.722;8.110;2023-03-03T08:48:01;40.80;;;26.97;;
7471;SDS011;3777;48.722;8.110;2023-03-03T08:50:29;41.37;;;26.33;;
7471;SDS011;3777;48.722;8.110;2023-03-03T08:52:56;38.20;;;24.93;;
7471;SDS011;3777;48.722;8.110;2023-03-03T08:55:23;36.03;;;24.00;;
7471;SDS011;3777;48.722;8.110;2023-03-03T08:57:50;36.67;;;25.03;;
7471;SDS011;3777;48.722;8.110;2023-03-03T09:00:17;37.50;;;26.07;;
7471;SDS011;3777;48.722;8.110;2023-03-03T09:02:45;43.57;;;25.80;;
7471;SDS011;3777;48.722;8.110;2023-03-03T09:05:13;36.60;;;25.87;;
7471;SDS011;3777;48.722;8.110;2023-03-03T09:07:41;37.57;;;25.23;;
7471;SDS011;3777;48.722;8.110;2023-03-03T09:10:10;33.43;;;23.70;;
7471;SDS011;3777;48.722;8.110;2023-03-03T09:12:38;38.47;;;25.17;;
7471;SDS011;3777;48.722;8.110;2023-03-03T09:15:11;36.93;;;25.50;;
7471;SDS011;3777;48.722;8.110;2023-03-03T09:17:45;36.27;;;24.37;;
7471;SDS011;3777;48.722;8.110;2023-03-03T09:20:20;40.00;;;26.40;;
7471;SDS011;3777;48.722;8.110;2023-03-03T09:22:59;35.33;;;24.13;;
7471;SDS011;3777;48.722;8.110;2023-03-03T09:25:50;39.43;;;25.60;;
7471;SDS011;3777;48.722;8.110;2023-03-03T09:28:18;37.07;;;26.27;;
7471;SDS011;3777;48.722;8.110;2023-03-03T09:30:49;36.97;;;24.97;;
7471;SDS011;3777;48.722;8.110;2023-03-03T09:33:19;35.73;;;24.70;;
7471;SDS011;3777;48.722;8.110;2023-03-03T09:35:56;37.47;;;25.60;;
7471;SDS011;3777;48.722;8.110;2023-03-03T09:38:34;40.23;;;26.97;;
7471;SDS011;3777;48.722;8.110;2023-03-03T09:44:26;40.50;;;25.47;;
7471;SDS011;3777;48.722;8.110;2023-03-03T09:47:07;42.77;;;27.70;;
7471;SDS011;3777;48.722;8.110;2023-03-03T09:49:44;41.07;;;27.13;;
7471;SDS011;3777;48.722;8.110;2023-03-03T09:52:28;40.33;;;28.23;;
7471;SDS011;3777;48.722;8.110;2023-03-03T09:55:03;42.80;;;29.70;;
7471;SDS011;3777;48.722;8.110;2023-03-03T09:57:50;40.67;;;28.77;;
7471;SDS011;3777;48.722;8.110;2023-03-03T10:00:30;42.83;;;28.83;;
7471;SDS011;3777;48.722;8.110;2023-03-03T10:03:12;42.23;;;28.43;;
7471;SDS011;3777;48.722;8.110;2023-03-03T10:05:53;43.90;;;27.23;;
7471;SDS011;3777;48.722;8.110;2023-03-03T10:08:29;44.53;;;27.80;;
7471;SDS011;3777;48.722;8.110;2023-03-03T10:11:08;39.73;;;26.83;;
7471;SDS011;3777;48.722;8.110;2023-03-03T10:19:32;41.00;;;27.47;;
7471;SDS011;3777;48.722;8.110;2023-03-03T10:22:10;39.00;;;27.13;;
7471;SDS011;3777;48.722;8.110;2023-03-03T10:24:49;43.17;;;28.10;;
7471;SDS011;3777;48.722;8.110;2023-03-03T10:27:32;36.10;;;26.93;;
7471;SDS011;3777;48.722;8.110;2023-03-03T10:30:10;38.83;;;28.03;;
7471;SDS011;3777;48.722;8.110;2023-03-03T10:32:45;39.47;;;28.37;;
7471;SDS011;3777;48.722;8.110;2023-03-03T10:35:22;36.87;;;26.53;;
7471;SDS011;3777;48.722;8.110;2023-03-03T10:38:02;39.93;;;28.10;;
7471;SDS011;3777;48.722;8.110;2023-03-03T10:40:44;36.30;;;27.60;;
7471;SDS011;3777;48.722;8.110;2023-03-03T10:43:20;41.23;;;27.63;;
7471;SDS011;3777;48.722;8.110;2023-03-03T10:46:11;40.43;;;28.77;;
7471;SDS011;3777;48.722;8.110;2023-03-03T10:48:52;38.80;;;28.17;;
7471;SDS011;3777;48.722;8.110;2023-03-03T10:51:32;40.47;;;27.30;;
7471;SDS011;3777;48.722;8.110;2023-03-03T10:54:14;38.70;;;28.13;;
7471;SDS011;3777;48.722;8.110;2023-03-03T10:56:51;34.87;;;27.40;;
7471;SDS011;3777;48.722;8.110;2023-03-03T10:59:30;38.53;;;27.93;;
7471;SDS011;3777;48.722;8.110;2023-03-03T11:02:15;38.03;;;27.70;;
7471;SDS011;3777;48.722;8.110;2023-03-03T11:04:50;33.47;;;26.87;;
7471;SDS011;3777;48.722;8.110;2023-03-03T11:07:30;35.03;;;26.30;;
7471;SDS011;3777;48.722;8.110;2023-03-03T11:10:14;36.27;;;26.00;;
7471;SDS011;3777;48.722;8.110;2023-03-03T11:13:04;40.23;;;27.77;;
7471;SDS011;3777;48.722;8.110;2023-03-03T11:18:32;42.17;;;29.47;;
7471;SDS011;3777;48.722;8.110;2023-03-03T11:21:11;41.27;;;29.60;;
7471;SDS011;3777;48.722;8.110;2023-03-03T11:23:56;43.03;;;30.20;;
7471;SDS011;3777;48.722;8.110;2023-03-03T11:29:32;40.57;;;26.63;;
7471;SDS011;3777;48.722;8.110;2023-03-03T11:32:17;35.77;;;25.73;;
7471;SDS011;3777;48.722;8.110;2023-03-03T11:34:57;37.20;;;26.27;;
7471;SDS011;3777;48.722;8.110;2023-03-03T11:37:35;33.33;;;24.47;;
7471;SDS011;3777;48.722;8.110;2023-03-03T11:40:09;33.63;;;24.90;;
7471;SDS011;3777;48.722;8.110;2023-03-03T11:42:44;33.40;;;24.37;;
7471;SDS011;3777;48.722;8.110;2023-03-03T11:45:21;33.80;;;24.67;;
7471;SDS011;3777;48.722;8.110;2023-03-03T11:47:52;33.73;;;25.70;;
7471;SDS011;3777;48.722;8.110;2023-03-03T11:50:25;32.70;;;24.93;;
7471;SDS011;3777;48.722;8.110;2023-03-03T11:52:59;35.03;;;25.40;;
7471;SDS011;3777;48.722;8.110;2023-03-03T11:55:37;35.10;;;24.90;;
7471;SDS011;3777;48.722;8.110;2023-03-03T11:58:10;35.33;;;25.93;;
7471;SDS011;3777;48.722;8.110;2023-03-03T12:00:42;35.73;;;25.33;;
7471;SDS011;3777;48.722;8.110;2023-03-03T12:03:16;36.07;;;25.57;;
7471;SDS011;3777;48.722;8.110;2023-03-03T12:05:55;37.57;;;26.40;;
7471;SDS011;3777;48.722;8.110;2023-03-03T12:08:37;33.97;;;24.93;;
7471;SDS011;3777;48.722;8.110;2023-03-03T12:11:25;34.93;;;24.27;;
7471;SDS011;3777;48.722;8.110;2023-03-03T12:13:57;37.23;;;24.70;;
7471;SDS011;3777;48.722;8.110;2023-03-03T12:16:39;37.23;;;25.63;;
7471;SDS011;3777;48.722;8.110;2023-03-03T12:22:18;40.57;;;25.50;;
7471;SDS011;3777;48.722;8.110;2023-03-03T12:27:51;35.83;;;23.80;;
7471;SDS011;3777;48.722;8.110;2023-03-03T12:30:30;35.17;;;25.10;;
7471;SDS011;3777;48.722;8.110;2023-03-03T12:33:21;35.23;;;23.83;;
7471;SDS011;3777;48.722;8.110;2023-03-03T12:36:00;34.93;;;23.63;;
7471;SDS011;3777;48.722;8.110;2023-03-03T12:38:37;33.60;;;23.13;;
7471;SDS011;3777;48.722;8.110;2023-03-03T12:41:14;30.80;;;22.20;;
7471;SDS011;3777;48.722;8.110;2023-03-03T12:43:54;33.17;;;23.23;;
7471;SDS011;3777;48.722;8.110;2023-03-03T12:46:27;30.13;;;22.10;;
7471;SDS011;3777;48.722;8.110;2023-03-03T12:49:02;31.97;;;24.37;;
7471;SDS011;3777;48.722;8.110;2023-03-03T12:51:35;28.77;;;21.13;;
7471;SDS011;3777;48.722;8.110;2023-03-03T12:54:16;34.53;;;23.37;;
7471;SDS011;3777;48.722;8.110;2023-03-03T12:57:08;33.43;;;23.33;;
7471;SDS011;3777;48.722;8.110;2023-03-03T12:59:47;33.43;;;22.07;;
7471;SDS011;3777;48.722;8.110;2023-03-03T13:02:40;31.53;;;22.83;;
7471;SDS011;3777;48.722;8.110;2023-03-03T13:05:26;29.97;;;22.00;;
7471;SDS011;3777;48.722;8.110;2023-03-03T13:08:12;32.53;;;23.20;;
7471;SDS011;3777;48.722;8.110;2023-03-03T13:10:54;31.53;;;22.77;;
7471;SDS011;3777;48.722;8.110;2023-03-03T13:13:26;31.30;;;22.63;;
7471;SDS011;3777;48.722;8.110;2023-03-03T13:16:01;31.13;;;23.03;;
7471;SDS011;3777;48.722;8.110;2023-03-03T13:18:46;32.33;;;22.07;;
7471;SDS011;3777;48.722;8.110;2023-03-03T13:21:19;34.30;;;22.37;;
7471;SDS011;3777;48.722;8.110;2023-03-03T13:23:52;30.77;;;22.47;;
7471;SDS011;3777;48.722;8.110;2023-03-03T13:26:25;33.70;;;23.73;;
7471;SDS011;3777;48.722;8.110;2023-03-03T13:28:57;31.70;;;22.70;;
7471;SDS011;3777;48.722;8.110;2023-03-03T13:31:32;32.10;;;23.10;;
7471;SDS011;3777;48.722;8.110;2023-03-03T13:34:01;30.50;;;22.13;;
7471;SDS011;3777;48.722;8.110;2023-03-03T13:36:32;30.33;;;21.60;;
7471;SDS011;3777;48.722;8.110;2023-03-03T13:39:05;31.97;;;22.77;;
7471;SDS011;3777;48.722;8.110;2023-03-03T13:41:43;35.23;;;22.37;;
7471;SDS011;3777;48.722;8.110;2023-03-03T13:44:16;31.57;;;21.77;;
7471;SDS011;3777;48.722;8.110;2023-03-03T13:46:52;32.67;;;23.03;;
7471;SDS011;3777;48.722;8.110;2023-03-03T13:49:34;32.37;;;22.50;;
7471;SDS011;3777;48.722;8.110;2023-03-03T13:52:12;31.93;;;22.13;;
7471;SDS011;3777;48.722;8.110;2023-03-03T13:54:55;32.17;;;21.37;;
7471;SDS011;3777;48.722;8.110;2023-03-03T13:57:37;34.47;;;23.47;;
7471;SDS011;3777;48.722;8.110;2023-03-03T14:00:19;33.40;;;23.63;;
7471;SDS011;3777;48.722;8.110;2023-03-03T14:02:58;31.57;;;21.37;;
7471;SDS011;3777;48.722;8.110;2023-03-03T14:05:51;32.80;;;22.40;;
7471;SDS011;3777;48.722;8.110;2023-03-03T14:08:27;36.40;;;24.97;;
7471;SDS011;3777;48.722;8.110;2023-03-03T14:11:09;31.13;;;22.10;;
7471;SDS011;3777;48.722;8.110;2023-03-03T14:13:43;31.70;;;23.23;;
7471;SDS011;3777;48.722;8.110;2023-03-03T14:16:20;34.57;;;23.23;;
7471;SDS011;3777;48.722;8.110;2023-03-03T14:19:12;31.43;;;23.13;;
7471;SDS011;3777;48.722;8.110;2023-03-03T14:21:44;32.80;;;23.13;;
7471;SDS011;3777;48.722;8.110;2023-03-03T14:24:19;33.37;;;23.67;;
7471;SDS011;3777;48.722;8.110;2023-03-03T14:26:51;34.40;;;23.37;;
7471;SDS011;3777;48.722;8.110;2023-03-03T14:29:20;32.47;;;23.47;;
7471;SDS011;3777;48.722;8.110;2023-03-03T14:31:55;32.47;;;22.10;;
7471;SDS011;3777;48.722;8.110;2023-03-03T14:34:29;35.37;;;23.07;;
7471;SDS011;3777;48.722;8.110;2023-03-03T14:37:18;32.20;;;23.60;;
7471;SDS011;3777;48.722;8.110;2023-03-03T14:39:50;32.63;;;22.40;;
7471;SDS011;3777;48.722;8.110;2023-03-03T14:42:31;33.70;;;22.80;;
7471;SDS011;3777;48.722;8.110;2023-03-03T14:45:01;32.07;;;21.90;;
7471;SDS011;3777;48.722;8.110;2023-03-03T14:47:44;35.37;;;23.97;;
7471;SDS011;3777;48.722;8.110;2023-03-03T14:50:27;32.07;;;23.70;;
7471;SDS011;3777;48.722;8.110;2023-03-03T14:53:02;39.60;;;25.40;;
7471;SDS011;3777;48.722;8.110;2023-03-03T14:55:38;35.87;;;25.70;;
7471;SDS011;3777;48.722;8.110;2023-03-03T14:58:07;37.53;;;25.73;;
7471;SDS011;3777;48.722;8.110;2023-03-03T15:00:50;35.73;;;24.17;;
7471;SDS011;3777;48.722;8.110;2023-03-03T15:03:44;34.37;;;23.40;;
7471;SDS011;3777;48.722;8.110;2023-03-03T15:06:13;34.47;;;24.80;;
7471;SDS011;3777;48.722;8.110;2023-03-03T15:09:30;37.00;;;24.23;;
7471;SDS011;3777;48.722;8.110;2023-03-03T15:12:02;35.03;;;24.13;;
7471;SDS011;3777;48.722;8.110;2023-03-03T15:14:45;37.60;;;24.73;;
7471;SDS011;3777;48.722;8.110;2023-03-03T15:17:18;50.93;;;32.60;;
7471;SDS011;3777;48.722;8.110;2023-03-03T15:20:03;40.00;;;26.30;;
7471;SDS011;3777;48.722;8.110;2023-03-03T15:22:47;34.20;;;23.47;;
7471;SDS011;3777;48.722;8.110;2023-03-03T15:25:22;32.70;;;23.07;;
7471;SDS011;3777;48.722;8.110;2023-03-03T15:27:59;36.40;;;23.70;;
7471;SDS011;3777;48.722;8.110;2023-03-03T15:30:35;35.90;;;23.47;;
7471;SDS011;3777;48.722;8.110;2023-03-03T15:33:07;33.87;;;23.87;;
7471;SDS011;3777;48.722;8.110;2023-03-03T15:35:45;35.63;;;23.23;;
7471;SDS011;3777;48.722;8.110;2023-03-03T15:38:23;34.47;;;24.47;;
7471;SDS011;3777;48.722;8.110;2023-03-03T15:41:00;33.47;;;22.80;;
7471;SDS011;3777;48.722;8.110;2023-03-03T15:43:39;34.53;;;24.23;;
7471;SDS011;3777;48.722;8.110;2023-03-03T15:46:18;36.80;;;24.50;;